sensor_id;sensor_type;location;lat;lon;timestamp;P1;durP1;ratioP1;P2;durP2;ratioP2
47309;SDS011;33046;52.270;6.832;2023-11-21T00:02:00;30.15;;;14.68;;
47309;SDS011;33046;52.270;6.832;2023-11-21T00:04:08;25.63;;;17.45;;
47309;SDS011;33046;52.270;6.832;2023-11-21T00:06:15;27.05;;;16.67;;
47309;SDS011;33046;52.270;6.832;2023-11-21T00:08:22;26.45;;;15.55;;
47309;SDS011;33046;52.270;6.832;2023-11-21T00:10:29;28.70;;;16.40;;
47309;SDS011;33046;52.270;6.832;2023-11-21T00:12:36;29.05;;;15.85;;
47309;SDS011;33046;52.270;6.832;2023-11-21T00:14:43;29.77;;;16.33;;
47309;SDS011;33046;52.270;6.832;2023-11-21T00:16:50;31.98;;;17.63;;
47309;SDS011;33046;52.270;6.832;2023-11-21T00:18:57;32.70;;;16.20;;
47309;SDS011;33046;52.270;6.832;2023-11-21T00:21:05;45.13;;;20.77;;
47309;SDS011;33046;52.270;6.832;2023-11-21T00:23:12;34.80;;;18.85;;
47309;SDS011;33046;52.270;6.832;2023-11-21T00:25:19;31.45;;;17.08;;
47309;SDS011;33046;52.270;6.832;2023-11-21T00:27:26;35.85;;;18.02;;
47309;SDS011;33046;52.270;6.832;2023-11-21T00:29:33;28.92;;;16.55;;
47309;SDS011;33046;52.270;6.832;2023-11-21T00:31:39;33.30;;;17.27;;
47309;SDS011;33046;52.270;6.832;2023-11-21T00:33:46;28.17;;;16.40;;
47309;SDS011;33046;52.270;6.832;2023-11-21T00:35:53;32.42;;;17.80;;
47309;SDS011;33046;52.270;6.832;2023-11-21T00:38:01;28.63;;;16.65;;
47309;SDS011;33046;52.270;6.832;2023-11-21T00:40:09;28.88;;;17.27;;
47309;SDS011;33046;52.270;6.832;2023-11-21T00:42:17;26.45;;;16.63;;
47309;SDS011;33046;52.270;6.832;2023-11-21T00:44:24;29.45;;;18.30;;
47309;SDS011;33046;52.270;6.832;2023-11-21T00:46:31;27.88;;;16.17;;
47309;SDS011;33046;52.270;6.832;2023-11-21T00:48:37;31.27;;;16.92;;
47309;SDS011;33046;52.270;6.832;2023-11-21T00:50:44;30.17;;;16.85;;
47309;SDS011;33046;52.270;6.832;2023-11-21T00:52:51;33.85;;;17.00;;
47309;SDS011;33046;52.270;6.832;2023-11-21T00:55:00;31.95;;;17.23;;
47309;SDS011;33046;52.270;6.832;2023-11-21T00:57:06;27.67;;;16.58;;
47309;SDS011;33046;52.270;6.832;2023-11-21T00:59:13;33.42;;;17.58;;
47309;SDS011;33046;52.270;6.832;2023-11-21T01:01:20;29.70;;;17.52;;
47309;SDS011;33046;52.270;6.832;2023-11-21T01:03:27;26.00;;;14.50;;
47309;SDS011;33046;52.270;6.832;2023-11-21T01:05:34;29.85;;;17.42;;
47309;SDS011;33046;52.270;6.832;2023-11-21T01:07:41;30.63;;;17.80;;
47309;SDS011;33046;52.270;6.832;2023-11-21T01:09:49;32.03;;;18.48;;
47309;SDS011;33046;52.270;6.832;2023-11-21T01:11:58;27.52;;;17.95;;
47309;SDS011;33046;52.270;6.832;2023-11-21T01:14:04;32.35;;;18.80;;
47309;SDS011;33046;52.270;6.832;2023-11-21T01:16:11;29.02;;;17.15;;
47309;SDS011;33046;52.270;6.832;2023-11-21T01:18:19;26.65;;;16.75;;
47309;SDS011;33046;52.270;6.832;2023-11-21T01:20:26;24.42;;;17.73;;
47309;SDS011;33046;52.270;6.832;2023-11-21T01:22:33;26.15;;;16.08;;
47309;SDS011;33046;52.270;6.832;2023-11-21T01:24:40;23.90;;;16.40;;
47309;SDS011;33046;52.270;6.832;2023-11-21T01:26:47;23.45;;;15.63;;
47309;SDS011;33046;52.270;6.832;2023-11-21T01:28:55;27.27;;;16.52;;
47309;SDS011;33046;52.270;6.832;2023-11-21T01:31:03;25.00;;;16.40;;
47309;SDS011;33046;52.270;6.832;2023-11-21T01:33:10;26.20;;;16.75;;
47309;SDS011;33046;52.270;6.832;2023-11-21T01:35:17;29.08;;;17.88;;
47309;SDS011;33046;52.270;6.832;2023-11-21T01:37:24;24.13;;;15.93;;
47309;SDS011;33046;52.270;6.832;2023-11-21T01:39:31;28.30;;;17.00;;
47309;SDS011;33046;52.270;6.832;2023-11-21T01:41:39;23.17;;;17.23;;
47309;SDS011;33046;52.270;6.832;2023-11-21T01:43:46;26.02;;;17.38;;
47309;SDS011;33046;52.270;6.832;2023-11-21T01:45:54;26.48;;;16.38;;
47309;SDS011;33046;52.270;6.832;2023-11-21T01:48:01;27.48;;;16.15;;
47309;SDS011;33046;52.270;6.832;2023-11-21T01:50:09;29.25;;;18.48;;
47309;SDS011;33046;52.270;6.832;2023-11-21T01:52:20;25.40;;;19.60;;
47309;SDS011;33046;52.270;6.832;2023-11-21T01:54:27;26.25;;;17.08;;
47309;SDS011;33046;52.270;6.832;2023-11-21T01:56:35;24.75;;;16.85;;
47309;SDS011;33046;52.270;6.832;2023-11-21T01:58:42;23.80;;;16.27;;
47309;SDS011;33046;52.270;6.832;2023-11-21T02:00:49;29.35;;;17.27;;
47309;SDS011;33046;52.270;6.832;2023-11-21T02:02:58;30.58;;;19.42;;
47309;SDS011;33046;52.270;6.832;2023-11-21T02:05:05;27.77;;;17.00;;
47309;SDS011;33046;52.270;6.832;2023-11-21T02:07:13;27.70;;;17.88;;
47309;SDS011;33046;52.270;6.832;2023-11-21T02:09:23;27.23;;;16.92;;
47309;SDS011;33046;52.270;6.832;2023-11-21T02:11:31;29.70;;;19.83;;
47309;SDS011;33046;52.270;6.832;2023-11-21T02:13:38;27.58;;;18.90;;
47309;SDS011;33046;52.270;6.832;2023-11-21T02:15:45;30.75;;;18.92;;
47309;SDS011;33046;52.270;6.832;2023-11-21T02:17:52;29.58;;;19.83;;
47309;SDS011;33046;52.270;6.832;2023-11-21T02:20:01;33.28;;;20.13;;
47309;SDS011;33046;52.270;6.832;2023-11-21T02:22:08;26.85;;;17.85;;
47309;SDS011;33046;52.270;6.832;2023-11-21T02:24:17;26.05;;;18.30;;
47309;SDS011;33046;52.270;6.832;2023-11-21T02:26:24;28.75;;;20.25;;
47309;SDS011;33046;52.270;6.832;2023-11-21T02:28:31;26.60;;;18.67;;
47309;SDS011;33046;52.270;6.832;2023-11-21T02:30:38;30.33;;;20.88;;
47309;SDS011;33046;52.270;6.832;2023-11-21T02:32:45;28.17;;;18.17;;
47309;SDS011;33046;52.270;6.832;2023-11-21T02:34:52;28.00;;;19.48;;
47309;SDS011;33046;52.270;6.832;2023-11-21T02:36:59;27.23;;;18.00;;
47309;SDS011;33046;52.270;6.832;2023-11-21T02:39:05;28.58;;;19.00;;
47309;SDS011;33046;52.270;6.832;2023-11-21T02:41:14;30.50;;;18.83;;
47309;SDS011;33046;52.270;6.832;2023-11-21T02:43:21;25.33;;;19.58;;
47309;SDS011;33046;52.270;6.832;2023-11-21T02:45:27;27.63;;;19.63;;
47309;SDS011;33046;52.270;6.832;2023-11-21T02:47:34;31.60;;;20.85;;
47309;SDS011;33046;52.270;6.832;2023-11-21T02:49:41;29.40;;;19.08;;
47309;SDS011;33046;52.270;6.832;2023-11-21T02:51:49;25.27;;;18.27;;
47309;SDS011;33046;52.270;6.832;2023-11-21T02:53:56;29.98;;;18.65;;
47309;SDS011;33046;52.270;6.832;2023-11-21T02:56:03;26.20;;;17.77;;
47309;SDS011;33046;52.270;6.832;2023-11-21T02:58:11;26.83;;;17.58;;
47309;SDS011;33046;52.270;6.832;2023-11-21T03:00:18;28.83;;;18.75;;
47309;SDS011;33046;52.270;6.832;2023-11-21T03:02:25;27.08;;;18.83;;
47309;SDS011;33046;52.270;6.832;2023-11-21T03:04:32;26.90;;;20.58;;
47309;SDS011;33046;52.270;6.832;2023-11-21T03:06:39;27.50;;;20.70;;
47309;SDS011;33046;52.270;6.832;2023-11-21T03:08:46;26.92;;;20.25;;
47309;SDS011;33046;52.270;6.832;2023-11-21T03:10:53;29.77;;;19.65;;
47309;SDS011;33046;52.270;6.832;2023-11-21T03:13:02;28.98;;;18.83;;
47309;SDS011;33046;52.270;6.832;2023-11-21T03:15:11;25.17;;;19.33;;
47309;SDS011;33046;52.270;6.832;2023-11-21T03:17:18;26.25;;;18.20;;
47309;SDS011;33046;52.270;6.832;2023-11-21T03:19:25;31.05;;;19.75;;
47309;SDS011;33046;52.270;6.832;2023-11-21T03:21:32;31.20;;;20.65;;
47309;SDS011;33046;52.270;6.832;2023-11-21T03:23:39;25.60;;;16.83;;
47309;SDS011;33046;52.270;6.832;2023-11-21T03:25:46;29.52;;;20.67;;
47309;SDS011;33046;52.270;6.832;2023-11-21T03:27:53;33.85;;;20.73;;
47309;SDS011;33046;52.270;6.832;2023-11-21T03:30:00;29.73;;;19.98;;
47309;SDS011;33046;52.270;6.832;2023-11-21T03:32:08;29.00;;;18.70;;
47309;SDS011;33046;52.270;6.832;2023-11-21T03:34:15;27.67;;;19.88;;
47309;SDS011;33046;52.270;6.832;2023-11-21T03:36:31;32.08;;;20.33;;
47309;SDS011;33046;52.270;6.832;2023-11-21T03:38:37;34.80;;;20.52;;
47309;SDS011;33046;52.270;6.832;2023-11-21T03:40:44;26.25;;;19.02;;
47309;SDS011;33046;52.270;6.832;2023-11-21T03:42:51;28.38;;;18.80;;
47309;SDS011;33046;52.270;6.832;2023-11-21T03:44:59;30.30;;;20.88;;
47309;SDS011;33046;52.270;6.832;2023-11-21T03:47:06;28.70;;;19.55;;
47309;SDS011;33046;52.270;6.832;2023-11-21T03:49:14;31.27;;;20.20;;
47309;SDS011;33046;52.270;6.832;2023-11-21T03:51:21;34.53;;;21.23;;
47309;SDS011;33046;52.270;6.832;2023-11-21T03:53:28;28.55;;;20.13;;
47309;SDS011;33046;52.270;6.832;2023-11-21T03:55:35;29.13;;;19.30;;
47309;SDS011;33046;52.270;6.832;2023-11-21T03:57:42;31.52;;;19.67;;
47309;SDS011;33046;52.270;6.832;2023-11-21T03:59:49;26.83;;;20.30;;
47309;SDS011;33046;52.270;6.832;2023-11-21T04:01:56;30.42;;;19.27;;
47309;SDS011;33046;52.270;6.832;2023-11-21T04:04:03;33.70;;;21.13;;
47309;SDS011;33046;52.270;6.832;2023-11-21T04:06:12;26.20;;;19.10;;
47309;SDS011;33046;52.270;6.832;2023-11-21T04:08:18;30.48;;;20.13;;
47309;SDS011;33046;52.270;6.832;2023-11-21T04:10:25;30.60;;;19.02;;
47309;SDS011;33046;52.270;6.832;2023-11-21T04:12:32;30.98;;;21.85;;
47309;SDS011;33046;52.270;6.832;2023-11-21T04:14:39;25.50;;;17.38;;
47309;SDS011;33046;52.270;6.832;2023-11-21T04:16:46;34.63;;;19.42;;
47309;SDS011;33046;52.270;6.832;2023-11-21T04:18:53;30.23;;;20.05;;
47309;SDS011;33046;52.270;6.832;2023-11-21T04:20:59;33.63;;;20.50;;
47309;SDS011;33046;52.270;6.832;2023-11-21T04:23:08;33.42;;;19.95;;
47309;SDS011;33046;52.270;6.832;2023-11-21T04:25:14;31.90;;;19.48;;
47309;SDS011;33046;52.270;6.832;2023-11-21T04:27:21;31.17;;;20.00;;
47309;SDS011;33046;52.270;6.832;2023-11-21T04:29:28;30.13;;;19.67;;
47309;SDS011;33046;52.270;6.832;2023-11-21T04:31:35;32.05;;;19.65;;
47309;SDS011;33046;52.270;6.832;2023-11-21T04:33:42;32.78;;;21.52;;
47309;SDS011;33046;52.270;6.832;2023-11-21T04:35:49;28.80;;;20.35;;
47309;SDS011;33046;52.270;6.832;2023-11-21T04:37:56;31.98;;;21.00;;
47309;SDS011;33046;52.270;6.832;2023-11-21T04:40:04;34.58;;;20.20;;
47309;SDS011;33046;52.270;6.832;2023-11-21T04:42:12;31.55;;;19.83;;
47309;SDS011;33046;52.270;6.832;2023-11-21T04:44:19;28.75;;;20.17;;
47309;SDS011;33046;52.270;6.832;2023-11-21T04:46:26;34.10;;;21.30;;
47309;SDS011;33046;52.270;6.832;2023-11-21T04:48:32;30.48;;;19.75;;
47309;SDS011;33046;52.270;6.832;2023-11-21T04:50:39;29.27;;;19.13;;
47309;SDS011;33046;52.270;6.832;2023-11-21T04:52:46;33.08;;;19.58;;
47309;SDS011;33046;52.270;6.832;2023-11-21T04:54:53;32.40;;;21.27;;
47309;SDS011;33046;52.270;6.832;2023-11-21T04:57:01;36.22;;;20.45;;
47309;SDS011;33046;52.270;6.832;2023-11-21T04:59:08;34.55;;;20.75;;
47309;SDS011;33046;52.270;6.832;2023-11-21T05:01:15;34.30;;;19.52;;
47309;SDS011;33046;52.270;6.832;2023-11-21T05:03:22;39.60;;;21.25;;
47309;SDS011;33046;52.270;6.832;2023-11-21T05:05:28;40.67;;;21.95;;
47309;SDS011;33046;52.270;6.832;2023-11-21T05:07:35;34.67;;;21.25;;
47309;SDS011;33046;52.270;6.832;2023-11-21T05:09:42;33.75;;;22.52;;
47309;SDS011;33046;52.270;6.832;2023-11-21T05:11:49;37.35;;;23.40;;
47309;SDS011;33046;52.270;6.832;2023-11-21T05:13:58;32.05;;;20.88;;
47309;SDS011;33046;52.270;6.832;2023-11-21T05:16:05;37.97;;;21.10;;
47309;SDS011;33046;52.270;6.832;2023-11-21T05:18:12;30.63;;;20.45;;
47309;SDS011;33046;52.270;6.832;2023-11-21T05:20:19;36.08;;;22.73;;
47309;SDS011;33046;52.270;6.832;2023-11-21T05:22:26;31.60;;;20.33;;
47309;SDS011;33046;52.270;6.832;2023-11-21T05:24:33;35.33;;;20.23;;
47309;SDS011;33046;52.270;6.832;2023-11-21T05:26:40;38.25;;;22.33;;
47309;SDS011;33046;52.270;6.832;2023-11-21T05:28:47;38.85;;;21.83;;
47309;SDS011;33046;52.270;6.832;2023-11-21T05:30:55;39.15;;;21.45;;
47309;SDS011;33046;52.270;6.832;2023-11-21T05:33:08;30.85;;;19.95;;
47309;SDS011;33046;52.270;6.832;2023-11-21T05:35:15;33.22;;;21.45;;
47309;SDS011;33046;52.270;6.832;2023-11-21T05:37:22;32.47;;;21.08;;
47309;SDS011;33046;52.270;6.832;2023-11-21T05:39:29;36.58;;;21.88;;
47309;SDS011;33046;52.270;6.832;2023-11-21T05:41:36;31.55;;;20.30;;
47309;SDS011;33046;52.270;6.832;2023-11-21T05:43:43;35.45;;;21.95;;
47309;SDS011;33046;52.270;6.832;2023-11-21T05:45:50;33.35;;;20.60;;
47309;SDS011;33046;52.270;6.832;2023-11-21T05:47:58;35.63;;;19.17;;
47309;SDS011;33046;52.270;6.832;2023-11-21T05:50:05;32.47;;;19.70;;
47309;SDS011;33046;52.270;6.832;2023-11-21T05:52:13;30.90;;;20.58;;
47309;SDS011;33046;52.270;6.832;2023-11-21T05:54:19;27.77;;;18.88;;
47309;SDS011;33046;52.270;6.832;2023-11-21T05:56:26;31.98;;;19.38;;
47309;SDS011;33046;52.270;6.832;2023-11-21T05:58:33;33.35;;;19.95;;
47309;SDS011;33046;52.270;6.832;2023-11-21T06:00:40;30.15;;;19.38;;
47309;SDS011;33046;52.270;6.832;2023-11-21T06:02:47;32.97;;;20.70;;
47309;SDS011;33046;52.270;6.832;2023-11-21T06:04:55;29.25;;;19.48;;
47309;SDS011;33046;52.270;6.832;2023-11-21T06:07:02;31.02;;;20.48;;
47309;SDS011;33046;52.270;6.832;2023-11-21T06:09:09;32.38;;;21.20;;
47309;SDS011;33046;52.270;6.832;2023-11-21T06:11:16;27.40;;;18.67;;
47309;SDS011;33046;52.270;6.832;2023-11-21T06:13:23;30.88;;;19.73;;
47309;SDS011;33046;52.270;6.832;2023-11-21T06:15:30;32.30;;;20.80;;
47309;SDS011;33046;52.270;6.832;2023-11-21T06:17:36;33.35;;;20.52;;
47309;SDS011;33046;52.270;6.832;2023-11-21T06:19:44;34.60;;;22.10;;
47309;SDS011;33046;52.270;6.832;2023-11-21T06:21:52;26.20;;;18.88;;
47309;SDS011;33046;52.270;6.832;2023-11-21T06:23:59;28.60;;;19.58;;
47309;SDS011;33046;52.270;6.832;2023-11-21T06:26:06;31.98;;;20.52;;
47309;SDS011;33046;52.270;6.832;2023-11-21T06:28:12;28.35;;;19.92;;
47309;SDS011;33046;52.270;6.832;2023-11-21T06:30:19;32.45;;;21.83;;
47309;SDS011;33046;52.270;6.832;2023-11-21T06:32:26;28.30;;;19.52;;
47309;SDS011;33046;52.270;6.832;2023-11-21T06:34:33;35.88;;;21.95;;
47309;SDS011;33046;52.270;6.832;2023-11-21T06:36:40;29.85;;;19.40;;
47309;SDS011;33046;52.270;6.832;2023-11-21T06:38:48;29.55;;;20.27;;
47309;SDS011;33046;52.270;6.832;2023-11-21T06:40:55;36.65;;;20.90;;
47309;SDS011;33046;52.270;6.832;2023-11-21T06:43:02;28.27;;;19.73;;
47309;SDS011;33046;52.270;6.832;2023-11-21T06:45:09;30.33;;;20.90;;
47309;SDS011;33046;52.270;6.832;2023-11-21T06:47:16;30.65;;;18.73;;
47309;SDS011;33046;52.270;6.832;2023-11-21T06:49:23;28.15;;;20.48;;
47309;SDS011;33046;52.270;6.832;2023-11-21T06:51:30;35.05;;;21.95;;
47309;SDS011;33046;52.270;6.832;2023-11-21T06:53:37;28.20;;;19.55;;
47309;SDS011;33046;52.270;6.832;2023-11-21T06:55:45;28.10;;;20.23;;
47309;SDS011;33046;52.270;6.832;2023-11-21T06:57:52;29.30;;;20.27;;
47309;SDS011;33046;52.270;6.832;2023-11-21T06:59:59;28.83;;;19.80;;
47309;SDS011;33046;52.270;6.832;2023-11-21T07:02:06;28.75;;;19.48;;
47309;SDS011;33046;52.270;6.832;2023-11-21T07:04:13;30.38;;;19.80;;
47309;SDS011;33046;52.270;6.832;2023-11-21T07:06:20;29.63;;;19.05;;
47309;SDS011;33046;52.270;6.832;2023-11-21T07:08:27;32.05;;;19.58;;
47309;SDS011;33046;52.270;6.832;2023-11-21T07:10:33;31.35;;;20.02;;
47309;SDS011;33046;52.270;6.832;2023-11-21T07:12:42;29.88;;;21.60;;
47309;SDS011;33046;52.270;6.832;2023-11-21T07:14:49;27.83;;;19.13;;
47309;SDS011;33046;52.270;6.832;2023-11-21T07:16:56;32.45;;;20.88;;
47309;SDS011;33046;52.270;6.832;2023-11-21T07:19:03;31.77;;;21.25;;
47309;SDS011;33046;52.270;6.832;2023-11-21T07:21:10;33.03;;;20.33;;
47309;SDS011;33046;52.270;6.832;2023-11-21T07:23:17;30.45;;;19.98;;
47309;SDS011;33046;52.270;6.832;2023-11-21T07:25:24;33.17;;;20.98;;
47309;SDS011;33046;52.270;6.832;2023-11-21T07:27:30;31.60;;;19.40;;
47309;SDS011;33046;52.270;6.832;2023-11-21T07:29:39;37.40;;;20.75;;
47309;SDS011;33046;52.270;6.832;2023-11-21T07:31:45;28.80;;;18.67;;
47309;SDS011;33046;52.270;6.832;2023-11-21T07:33:52;31.48;;;18.90;;
47309;SDS011;33046;52.270;6.832;2023-11-21T07:35:59;29.27;;;19.33;;
47309;SDS011;33046;52.270;6.832;2023-11-21T07:38:06;35.67;;;20.05;;
47309;SDS011;33046;52.270;6.832;2023-11-21T07:40:13;31.38;;;21.00;;
47309;SDS011;33046;52.270;6.832;2023-11-21T07:42:20;31.30;;;21.08;;
47309;SDS011;33046;52.270;6.832;2023-11-21T07:44:27;36.28;;;20.52;;
47309;SDS011;33046;52.270;6.832;2023-11-21T07:46:36;38.45;;;21.85;;
47309;SDS011;33046;52.270;6.832;2023-11-21T07:48:43;42.08;;;24.70;;
47309;SDS011;33046;52.270;6.832;2023-11-21T07:50:49;36.85;;;23.15;;
47309;SDS011;33046;52.270;6.832;2023-11-21T07:52:57;36.85;;;22.45;;
47309;SDS011;33046;52.270;6.832;2023-11-21T07:55:04;38.67;;;22.40;;
47309;SDS011;33046;52.270;6.832;2023-11-21T07:57:11;37.90;;;20.73;;
47309;SDS011;33046;52.270;6.832;2023-11-21T07:59:18;41.70;;;24.55;;
47309;SDS011;33046;52.270;6.832;2023-11-21T08:01:25;37.78;;;21.42;;
47309;SDS011;33046;52.270;6.832;2023-11-21T08:03:33;35.95;;;21.73;;
47309;SDS011;33046;52.270;6.832;2023-11-21T08:05:40;39.88;;;21.45;;
47309;SDS011;33046;52.270;6.832;2023-11-21T08:07:47;36.55;;;22.30;;
47309;SDS011;33046;52.270;6.832;2023-11-21T08:09:53;40.00;;;21.23;;
47309;SDS011;33046;52.270;6.832;2023-11-21T08:12:00;33.35;;;20.48;;
47309;SDS011;33046;52.270;6.832;2023-11-21T08:14:07;36.67;;;22.08;;
47309;SDS011;33046;52.270;6.832;2023-11-21T08:16:14;37.70;;;21.63;;
47309;SDS011;33046;52.270;6.832;2023-11-21T08:18:21;38.05;;;22.73;;
47309;SDS011;33046;52.270;6.832;2023-11-21T08:20:29;36.38;;;22.67;;
47309;SDS011;33046;52.270;6.832;2023-11-21T08:22:36;33.90;;;22.05;;
47309;SDS011;33046;52.270;6.832;2023-11-21T08:24:43;36.17;;;22.40;;
47309;SDS011;33046;52.270;6.832;2023-11-21T08:26:50;39.15;;;22.23;;
47309;SDS011;33046;52.270;6.832;2023-11-21T08:28:57;38.13;;;21.83;;
47309;SDS011;33046;52.270;6.832;2023-11-21T08:31:04;37.97;;;21.13;;
47309;SDS011;33046;52.270;6.832;2023-11-21T08:33:11;35.92;;;22.90;;
47309;SDS011;33046;52.270;6.832;2023-11-21T08:35:18;34.85;;;22.13;;
47309;SDS011;33046;52.270;6.832;2023-11-21T08:37:26;42.58;;;22.48;;
47309;SDS011;33046;52.270;6.832;2023-11-21T08:39:33;39.45;;;21.15;;
47309;SDS011;33046;52.270;6.832;2023-11-21T08:41:39;38.55;;;22.20;;
47309;SDS011;33046;52.270;6.832;2023-11-21T08:43:47;34.53;;;21.08;;
47309;SDS011;33046;52.270;6.832;2023-11-21T08:45:54;42.10;;;23.83;;
47309;SDS011;33046;52.270;6.832;2023-11-21T08:48:01;42.30;;;23.75;;
47309;SDS011;33046;52.270;6.832;2023-11-21T08:50:09;36.90;;;22.40;;
47309;SDS011;33046;52.270;6.832;2023-11-21T08:52:16;41.35;;;23.52;;
47309;SDS011;33046;52.270;6.832;2023-11-21T08:54:25;37.67;;;22.27;;
47309;SDS011;33046;52.270;6.832;2023-11-21T08:56:32;35.50;;;21.25;;
47309;SDS011;33046;52.270;6.832;2023-11-21T08:58:39;35.92;;;22.10;;
47309;SDS011;33046;52.270;6.832;2023-11-21T09:00:46;37.00;;;22.63;;
47309;SDS011;33046;52.270;6.832;2023-11-21T09:02:52;34.17;;;20.38;;
47309;SDS011;33046;52.270;6.832;2023-11-21T09:04:59;21.48;;;16.15;;
47309;SDS011;33046;52.270;6.832;2023-11-21T09:07:06;21.58;;;15.80;;
47309;SDS011;33046;52.270;6.832;2023-11-21T09:09:13;22.92;;;15.98;;
47309;SDS011;33046;52.270;6.832;2023-11-21T09:11:21;19.92;;;15.35;;
47309;SDS011;33046;52.270;6.832;2023-11-21T09:13:28;16.88;;;13.20;;
47309;SDS011;33046;52.270;6.832;2023-11-21T09:15:35;14.93;;;12.25;;
47309;SDS011;33046;52.270;6.832;2023-11-21T09:17:42;14.93;;;12.25;;
47309;SDS011;33046;52.270;6.832;2023-11-21T09:19:49;13.88;;;10.88;;
47309;SDS011;33046;52.270;6.832;2023-11-21T09:21:56;15.93;;;11.32;;
47309;SDS011;33046;52.270;6.832;2023-11-21T09:24:03;14.63;;;12.07;;
47309;SDS011;33046;52.270;6.832;2023-11-21T09:26:10;12.98;;;11.15;;
47309;SDS011;33046;52.270;6.832;2023-11-21T09:28:19;14.80;;;11.80;;
47309;SDS011;33046;52.270;6.832;2023-11-21T09:30:26;13.75;;;11.23;;
47309;SDS011;33046;52.270;6.832;2023-11-21T09:32:32;13.65;;;10.57;;
47309;SDS011;33046;52.270;6.832;2023-11-21T09:34:39;12.52;;;10.88;;
47309;SDS011;33046;52.270;6.832;2023-11-21T09:36:46;13.63;;;10.80;;
47309;SDS011;33046;52.270;6.832;2023-11-21T09:38:54;13.82;;;11.43;;
47309;SDS011;33046;52.270;6.832;2023-11-21T09:41:00;11.45;;;9.98;;
47309;SDS011;33046;52.270;6.832;2023-11-21T09:43:09;13.98;;;11.25;;
47309;SDS011;33046;52.270;6.832;2023-11-21T09:45:25;12.48;;;11.23;;
47309;SDS011;33046;52.270;6.832;2023-11-21T09:47:33;14.48;;;11.82;;
47309;SDS011;33046;52.270;6.832;2023-11-21T09:49:44;14.45;;;11.65;;
47309;SDS011;33046;52.270;6.832;2023-11-21T09:51:54;15.90;;;11.18;;
47309;SDS011;33046;52.270;6.832;2023-11-21T09:54:01;15.85;;;12.48;;
47309;SDS011;33046;52.270;6.832;2023-11-21T09:56:10;18.02;;;12.93;;
47309;SDS011;33046;52.270;6.832;2023-11-21T09:58:16;14.48;;;11.88;;
47309;SDS011;33046;52.270;6.832;2023-11-21T10:00:25;15.70;;;12.23;;
47309;SDS011;33046;52.270;6.832;2023-11-21T10:02:32;17.00;;;12.27;;
47309;SDS011;33046;52.270;6.832;2023-11-21T10:04:41;17.58;;;13.05;;
47309;SDS011;33046;52.270;6.832;2023-11-21T10:06:48;16.65;;;12.30;;
47309;SDS011;33046;52.270;6.832;2023-11-21T10:08:57;17.08;;;12.32;;
47309;SDS011;33046;52.270;6.832;2023-11-21T10:11:06;17.60;;;13.77;;
47309;SDS011;33046;52.270;6.832;2023-11-21T10:13:14;19.20;;;12.50;;
47309;SDS011;33046;52.270;6.832;2023-11-21T10:15:22;17.73;;;13.07;;
47309;SDS011;33046;52.270;6.832;2023-11-21T10:17:31;20.73;;;13.95;;
47309;SDS011;33046;52.270;6.832;2023-11-21T10:19:42;19.75;;;13.57;;
47309;SDS011;33046;52.270;6.832;2023-11-21T10:21:49;19.27;;;12.55;;
47309;SDS011;33046;52.270;6.832;2023-11-21T10:23:57;20.80;;;13.45;;
47309;SDS011;33046;52.270;6.832;2023-11-21T10:26:04;19.52;;;13.52;;
47309;SDS011;33046;52.270;6.832;2023-11-21T10:28:13;22.42;;;14.63;;
47309;SDS011;33046;52.270;6.832;2023-11-21T10:30:19;19.67;;;13.77;;
47309;SDS011;33046;52.270;6.832;2023-11-21T10:32:27;21.45;;;13.65;;
47309;SDS011;33046;52.270;6.832;2023-11-21T10:34:35;19.55;;;12.75;;
47309;SDS011;33046;52.270;6.832;2023-11-21T10:36:42;20.33;;;13.27;;
47309;SDS011;33046;52.270;6.832;2023-11-21T10:38:49;17.02;;;13.48;;
47309;SDS011;33046;52.270;6.832;2023-11-21T10:40:56;18.52;;;14.73;;
47309;SDS011;33046;52.270;6.832;2023-11-21T10:43:05;19.13;;;12.55;;
47309;SDS011;33046;52.270;6.832;2023-11-21T10:45:12;20.38;;;12.82;;
47309;SDS011;33046;52.270;6.832;2023-11-21T10:47:19;18.20;;;12.88;;
47309;SDS011;33046;52.270;6.832;2023-11-21T10:49:26;16.35;;;11.95;;
47309;SDS011;33046;52.270;6.832;2023-11-21T10:51:34;18.73;;;13.77;;
47309;SDS011;33046;52.270;6.832;2023-11-21T10:53:41;19.38;;;12.45;;
47309;SDS011;33046;52.270;6.832;2023-11-21T10:55:49;17.40;;;12.48;;
47309;SDS011;33046;52.270;6.832;2023-11-21T10:57:56;18.25;;;12.85;;
47309;SDS011;33046;52.270;6.832;2023-11-21T11:00:05;17.13;;;11.70;;
47309;SDS011;33046;52.270;6.832;2023-11-21T11:02:17;17.95;;;12.93;;
47309;SDS011;33046;52.270;6.832;2023-11-21T11:04:29;15.90;;;12.52;;
47309;SDS011;33046;52.270;6.832;2023-11-21T11:06:37;18.88;;;13.23;;
47309;SDS011;33046;52.270;6.832;2023-11-21T11:08:45;18.05;;;12.35;;
47309;SDS011;33046;52.270;6.832;2023-11-21T11:10:54;17.65;;;12.43;;
47309;SDS011;33046;52.270;6.832;2023-11-21T11:13:01;16.85;;;12.98;;
47309;SDS011;33046;52.270;6.832;2023-11-21T11:15:08;15.63;;;13.02;;
47309;SDS011;33046;52.270;6.832;2023-11-21T11:17:16;15.07;;;10.48;;
47309;SDS011;33046;52.270;6.832;2023-11-21T11:19:25;15.50;;;11.60;;
47309;SDS011;33046;52.270;6.832;2023-11-21T11:21:35;17.58;;;11.65;;
47309;SDS011;33046;52.270;6.832;2023-11-21T11:23:56;18.98;;;12.70;;
47309;SDS011;33046;52.270;6.832;2023-11-21T11:26:18;15.85;;;10.77;;
47309;SDS011;33046;52.270;6.832;2023-11-21T11:28:35;18.17;;;11.90;;
47309;SDS011;33046;52.270;6.832;2023-11-21T11:30:55;17.73;;;11.45;;
47309;SDS011;33046;52.270;6.832;2023-11-21T11:33:11;14.45;;;10.40;;
47309;SDS011;33046;52.270;6.832;2023-11-21T11:35:30;14.50;;;10.90;;
47309;SDS011;33046;52.270;6.832;2023-11-21T11:37:42;17.83;;;11.85;;
47309;SDS011;33046;52.270;6.832;2023-11-21T11:39:49;15.70;;;10.68;;
47309;SDS011;33046;52.270;6.832;2023-11-21T11:41:57;20.63;;;13.07;;
47309;SDS011;33046;52.270;6.832;2023-11-21T11:44:08;19.52;;;12.93;;
47309;SDS011;33046;52.270;6.832;2023-11-21T11:46:49;20.55;;;14.52;;
47309;SDS011;33046;52.270;6.832;2023-11-21T11:49:02;22.00;;;13.65;;
47309;SDS011;33046;52.270;6.832;2023-11-21T11:51:10;15.65;;;11.95;;
47309;SDS011;33046;52.270;6.832;2023-11-21T11:53:18;19.50;;;12.52;;
47309;SDS011;33046;52.270;6.832;2023-11-21T11:55:27;17.13;;;11.82;;
47309;SDS011;33046;52.270;6.832;2023-11-21T11:57:34;18.98;;;12.35;;
47309;SDS011;33046;52.270;6.832;2023-11-21T12:02:21;18.05;;;13.48;;
47309;SDS011;33046;52.270;6.832;2023-11-21T12:04:29;21.02;;;14.18;;
47309;SDS011;33046;52.270;6.832;2023-11-21T12:06:36;18.23;;;13.70;;
47309;SDS011;33046;52.270;6.832;2023-11-21T12:08:44;19.17;;;15.32;;
47309;SDS011;33046;52.270;6.832;2023-11-21T12:10:52;18.52;;;14.52;;
47309;SDS011;33046;52.270;6.832;2023-11-21T12:13:01;18.27;;;15.10;;
47309;SDS011;33046;52.270;6.832;2023-11-21T12:15:09;19.40;;;15.65;;
47309;SDS011;33046;52.270;6.832;2023-11-21T12:17:17;19.80;;;16.20;;
47309;SDS011;33046;52.270;6.832;2023-11-21T12:19:23;19.42;;;16.02;;
47309;SDS011;33046;52.270;6.832;2023-11-21T12:21:30;21.90;;;16.95;;
47309;SDS011;33046;52.270;6.832;2023-11-21T12:23:38;19.85;;;16.25;;
47309;SDS011;33046;52.270;6.832;2023-11-21T12:25:46;22.08;;;15.05;;
47309;SDS011;33046;52.270;6.832;2023-11-21T12:27:53;21.77;;;16.40;;
47309;SDS011;33046;52.270;6.832;2023-11-21T12:30:00;21.92;;;15.65;;